createdAt,value
2018-09-24T00:02:27.508Z,11.00
2018-09-24T00:05:05.241Z,11.00
2018-09-24T00:07:35.642Z,10.80
2018-09-24T00:10:25.434Z,10.90
2018-09-24T00:12:55.817Z,11.10
2018-09-24T00:15:26.201Z,11.00
2018-09-24T00:17:56.619Z,11.00
2018-09-24T00:20:26.999Z,11.00
2018-09-24T00:22:57.311Z,11.20
2018-09-24T00:25:27.721Z,11.00
2018-09-24T00:27:58.887Z,10.80
2018-09-24T00:30:29.277Z,10.80
2018-09-24T00:32:59.692Z,10.80
2018-09-24T00:35:30.089Z,10.70
2018-09-24T00:38:02.527Z,10.60
2018-09-24T00:40:33.720Z,10.60
2018-09-24T00:43:23.541Z,10.60
2018-09-24T00:45:53.878Z,10.60
2018-09-24T00:48:25.030Z,10.50
2018-09-24T00:50:56.177Z,10.30
2018-09-24T00:53:27.350Z,10.40
2018-09-24T00:58:48.043Z,10.50
2018-09-24T01:01:18.439Z,10.60
2018-09-24T01:03:48.827Z,10.70
2018-09-24T01:06:25.388Z,10.70
2018-09-24T01:08:55.779Z,10.70
2018-09-24T01:11:26.931Z,10.60
2018-09-24T01:13:58.101Z,10.70
2018-09-24T01:16:28.500Z,10.70
2018-09-24T01:18:59.651Z,10.60
2018-09-24T01:21:30.833Z,10.40
2018-09-24T01:24:20.332Z,10.30
2018-09-24T01:26:50.757Z,10.30
2018-09-24T01:29:21.140Z,10.30
2018-09-24T01:31:51.546Z,10.30
2018-09-24T01:34:22.729Z,10.20
2018-09-24T01:36:54.150Z,10.20
2018-09-24T01:39:24.546Z,10.20
2018-09-24T01:41:55.995Z,10.10
2018-09-24T01:44:26.390Z,10.30
2018-09-24T01:47:00.859Z,10.20
2018-09-24T01:49:32.044Z,10.70
2018-09-24T01:52:02.432Z,10.70
2018-09-24T01:54:33.595Z,10.60
2018-09-24T01:57:04.023Z,10.60
2018-09-24T01:59:34.417Z,10.60
2018-09-24T02:02:04.819Z,10.60
2018-09-24T02:04:40.288Z,10.60
2018-09-24T02:07:11.730Z,10.60
2018-09-24T02:09:42.104Z,10.80
2018-09-24T02:12:12.544Z,10.70
2018-09-24T02:14:42.937Z,10.80
2018-09-24T02:17:15.050Z,10.20
2018-09-24T02:19:51.563Z,10.10
2018-09-24T02:22:21.941Z,9.90
2018-09-24T02:24:52.340Z,9.90
2018-09-24T02:27:23.705Z,10.10
2018-09-24T02:29:54.088Z,10.10
2018-09-24T02:32:24.664Z,10.10
2018-09-24T02:34:55.093Z,10.50
2018-09-24T02:37:25.480Z,10.10
2018-09-24T02:39:55.865Z,10.10
2018-09-24T02:42:33.583Z,10.40
2018-09-24T02:45:03.985Z,10.40
2018-09-24T02:47:40.496Z,10.10
2018-09-24T02:50:10.893Z,9.90
2018-09-24T02:53:00.881Z,10.00
2018-09-24T02:55:36.388Z,10.10
2018-09-24T02:58:06.816Z,10.10
2018-09-24T03:00:38.921Z,10.10
2018-09-24T03:03:07.628Z,10.30
2018-09-24T03:05:38.051Z,10.10
2018-09-24T03:08:08.431Z,10.10
2018-09-24T03:10:38.862Z,10.10
2018-09-24T03:13:09.272Z,10.40
2018-09-24T03:15:39.857Z,10.30
2018-09-24T03:18:10.238Z,10.00
2018-09-24T03:20:43.491Z,9.90
2018-09-24T03:23:13.881Z,9.90
2018-09-24T03:25:50.437Z,9.90
2018-09-24T03:28:20.834Z,9.70
2018-09-24T03:30:51.994Z,9.60
2018-09-24T03:33:22.397Z,9.60
2018-09-24T03:35:52.788Z,9.70
2018-09-24T03:38:25.281Z,10.00
2018-09-24T03:40:56.383Z,9.90
2018-09-24T03:43:26.761Z,9.90
2018-09-24T03:45:57.162Z,10.00
2018-09-24T03:48:27.585Z,9.90
2018-09-24T03:51:20.131Z,9.90
2018-09-24T03:54:11.972Z,9.90
2018-09-24T03:56:42.374Z,10.00
2018-09-24T03:59:14.805Z,9.80
2018-09-24T04:01:45.219Z,9.60
2018-09-24T04:04:33.380Z,9.50
2018-09-24T04:07:22.330Z,9.40
2018-09-24T04:10:10.893Z,9.40
2018-09-24T04:12:59.220Z,9.20
2018-09-24T04:15:47.329Z,9.30
2018-09-24T04:18:42.702Z,9.10
2018-09-24T04:21:31.831Z,9.70
2018-09-24T04:24:20.222Z,9.70
2018-09-24T04:27:09.512Z,9.60
2018-09-24T04:29:58.124Z,9.60
2018-09-24T04:32:46.594Z,9.40
2018-09-24T04:35:35.163Z,9.50
2018-09-24T04:38:24.405Z,9.40
2018-09-24T04:41:12.634Z,9.30
2018-09-24T04:44:00.979Z,9.40
2018-09-24T04:46:49.640Z,9.60
2018-09-24T04:49:38.311Z,9.90
2018-09-24T04:52:26.546Z,9.90
2018-09-24T04:55:14.943Z,10.10
2018-09-24T04:58:03.213Z,9.90
2018-09-24T05:00:51.760Z,9.80
2018-09-24T05:03:40.719Z,9.90
2018-09-24T05:06:29.384Z,10.00
2018-09-24T05:12:23.783Z,9.90
2018-09-24T05:15:12.320Z,9.80
2018-09-24T05:18:00.648Z,9.70
2018-09-24T05:20:48.963Z,9.80
2018-09-24T05:23:37.069Z,9.70
2018-09-24T05:26:47.715Z,9.10
2018-09-24T05:29:35.910Z,9.10
2018-09-24T05:32:24.604Z,9.10
2018-09-24T05:35:12.834Z,9.10
2018-09-24T05:38:00.951Z,9.10
2018-09-24T05:40:49.378Z,9.10
2018-09-24T05:43:39.684Z,9.10
2018-09-24T05:46:28.148Z,9.20
2018-09-24T05:49:16.647Z,9.30
2018-09-24T05:52:04.848Z,9.90
2018-09-24T05:54:53.075Z,9.80
2018-09-24T05:57:41.580Z,9.70
2018-09-24T06:00:30.252Z,9.70
2018-09-24T06:03:19.567Z,9.50
2018-09-24T06:06:08.050Z,9.50
2018-09-24T06:08:58.215Z,9.40
2018-09-24T06:11:46.605Z,9.70
2018-09-24T06:14:35.395Z,9.40
2018-09-24T06:17:25.124Z,9.40
2018-09-24T06:20:13.679Z,9.40
2018-09-24T06:23:02.724Z,10.00
2018-09-24T06:25:51.024Z,10.00
2018-09-24T06:28:41.492Z,10.10
2018-09-24T06:31:30.063Z,9.60
2018-09-24T06:34:18.613Z,9.60
2018-09-24T06:37:06.979Z,9.60
2018-09-24T06:39:57.694Z,9.70
2018-09-24T06:42:46.026Z,9.80
2018-09-24T06:45:34.560Z,9.50
2018-09-24T06:48:24.249Z,9.70
2018-09-24T06:51:14.456Z,9.80
2018-09-24T06:54:05.290Z,9.70
2018-09-24T06:56:53.604Z,9.90
2018-09-24T06:59:45.787Z,10.10
2018-09-24T07:02:34.179Z,10.30
2018-09-24T07:05:26.496Z,10.10
2018-09-24T07:08:15.380Z,10.30
2018-09-24T07:11:06.942Z,10.30
2018-09-24T07:13:55.119Z,10.50
2018-09-24T07:16:44.251Z,10.50
2018-09-24T07:19:32.414Z,10.50
2018-09-24T07:22:21.648Z,10.30
2018-09-24T07:25:10.120Z,10.30
2018-09-24T07:27:59.210Z,10.30
2018-09-24T07:30:47.510Z,10.10
2018-09-24T07:33:35.847Z,10.20
2018-09-24T07:36:43.698Z,10.50
2018-09-24T07:39:31.923Z,10.30
2018-09-24T07:42:20.173Z,10.20
2018-09-24T07:45:08.650Z,10.40
2018-09-24T07:47:56.721Z,10.70
2018-09-24T07:50:49.082Z,10.80
2018-09-24T07:53:43.583Z,11.00
2018-09-24T07:56:31.798Z,11.20
2018-09-24T07:59:21.731Z,11.00
2018-09-24T08:02:10.146Z,11.20
2018-09-24T08:05:00.335Z,11.20
2018-09-24T08:07:55.135Z,11.10
2018-09-24T08:10:50.029Z,11.40
2018-09-24T08:13:46.535Z,11.50
2018-09-24T08:16:34.796Z,11.70
2018-09-24T08:19:23.401Z,11.70
2018-09-24T08:22:12.020Z,11.70
2018-09-24T08:25:00.234Z,11.80
2018-09-24T08:27:48.476Z,11.90
2018-09-24T08:30:37.950Z,12.10
2018-09-24T08:33:27.577Z,12.00
2018-09-24T08:36:16.093Z,12.00
2018-09-24T08:39:05.343Z,12.20
2018-09-24T08:41:54.538Z,12.20
2018-09-24T08:44:42.940Z,12.20
2018-09-24T08:47:33.131Z,12.20
2018-09-24T08:50:21.583Z,12.30
2018-09-24T08:53:10.328Z,12.30
2018-09-24T08:55:58.449Z,12.40
2018-09-24T08:58:46.892Z,12.50
2018-09-24T09:01:39.352Z,12.50
2018-09-24T09:04:27.729Z,12.60
2018-09-24T09:07:16.791Z,12.70
2018-09-24T09:10:06.171Z,12.70
2018-09-24T09:12:55.508Z,12.70
2018-09-24T09:15:43.917Z,12.70
2018-09-24T09:18:32.190Z,12.80
2018-09-24T09:21:20.674Z,12.90
2018-09-24T09:24:09.227Z,12.90
2018-09-24T09:26:57.621Z,13.00
2018-09-24T09:29:45.813Z,12.90
2018-09-24T09:32:34.190Z,12.90
2018-09-24T09:35:23.696Z,13.10
2018-09-24T09:38:12.232Z,13.10
2018-09-24T09:41:00.900Z,13.20
2018-09-24T09:43:49.846Z,13.30
2018-09-24T09:46:38.003Z,13.30
2018-09-24T09:49:26.562Z,13.40
2018-09-24T09:52:18.582Z,13.50
2018-09-24T09:55:07.367Z,13.50
2018-09-24T09:57:56.084Z,13.50
2018-09-24T10:00:44.552Z,13.50
2018-09-24T10:06:39.625Z,13.70
2018-09-24T10:09:28.106Z,13.70
2018-09-24T10:12:17.580Z,13.90
2018-09-24T10:15:06.948Z,13.90
2018-09-24T10:17:55.687Z,13.90
2018-09-24T10:20:44.069Z,13.90
2018-09-24T10:23:32.458Z,14.00
2018-09-24T10:26:21.239Z,14.10
2018-09-24T10:29:09.449Z,14.10
2018-09-24T10:31:57.706Z,14.10
2018-09-24T10:34:46.156Z,14.10
2018-09-24T10:37:35.117Z,14.20
2018-09-24T10:40:23.578Z,14.20
2018-09-24T10:43:12.371Z,14.20
2018-09-24T10:46:07.762Z,14.50
2018-09-24T10:48:56.237Z,14.50
2018-09-24T10:51:45.078Z,14.60
2018-09-24T10:54:33.160Z,14.60
2018-09-24T10:57:21.486Z,14.60
2018-09-24T11:00:10.670Z,14.20
2018-09-24T11:02:58.826Z,14.10
2018-09-24T11:05:51.251Z,14.20
2018-09-24T11:08:39.502Z,14.40
2018-09-24T11:11:28.106Z,14.70
2018-09-24T11:14:16.672Z,14.70
2018-09-24T11:17:05.316Z,14.60
2018-09-24T11:19:53.716Z,14.70
2018-09-24T11:22:42.045Z,14.50
2018-09-24T11:25:30.594Z,14.40
2018-09-24T11:28:19.915Z,14.20
2018-09-24T11:31:08.620Z,14.20
2018-09-24T11:33:57.994Z,13.90
2018-09-24T11:36:46.459Z,13.90
2018-09-24T11:39:35.038Z,13.80
2018-09-24T11:42:44.826Z,13.80
2018-09-24T11:45:33.170Z,13.80
2018-09-24T11:48:21.456Z,13.90
2018-09-24T11:51:09.915Z,14.10
2018-09-24T11:53:58.238Z,14.30
2018-09-24T11:56:47.399Z,14.50
2018-09-24T11:59:36.537Z,14.60
2018-09-24T12:02:25.103Z,14.50
2018-09-24T12:05:13.822Z,14.60
2018-09-24T12:08:06.480Z,14.70
2018-09-24T12:11:03.735Z,14.70
2018-09-24T12:13:52.031Z,14.90
2018-09-24T12:16:40.915Z,15.00
2018-09-24T12:19:29.152Z,15.00
2018-09-24T12:22:17.967Z,14.80
2018-09-24T12:25:06.598Z,14.80
2018-09-24T12:27:54.846Z,14.70
2018-09-24T12:30:44.013Z,14.40
2018-09-24T12:33:33.283Z,14.20
2018-09-24T12:36:21.595Z,14.20
2018-09-24T12:39:09.960Z,14.50
2018-09-24T12:42:00.606Z,14.80
2018-09-24T12:44:50.033Z,15.00
2018-09-24T12:47:38.227Z,15.10
2018-09-24T12:50:27.507Z,14.80
2018-09-24T12:53:16.017Z,14.70
2018-09-24T12:56:05.132Z,14.80
2018-09-24T12:58:53.600Z,14.80
2018-09-24T13:01:41.965Z,14.80
2018-09-24T13:04:32.213Z,14.70
2018-09-24T13:07:20.838Z,14.60
2018-09-24T13:10:09.525Z,14.50
2018-09-24T13:12:58.677Z,14.70
2018-09-24T13:15:47.631Z,14.60
2018-09-24T13:18:35.878Z,14.60
2018-09-24T13:21:24.153Z,14.90
2018-09-24T13:24:12.445Z,15.00
2018-09-24T13:27:01.406Z,14.90
2018-09-24T13:29:50.333Z,14.80
2018-09-24T13:32:38.808Z,14.80
2018-09-24T13:35:27.020Z,14.90
2018-09-24T13:38:15.207Z,14.90
2018-09-24T13:41:03.351Z,15.00
2018-09-24T13:43:51.504Z,15.10
2018-09-24T13:46:44.069Z,15.10
2018-09-24T13:49:32.272Z,15.30
2018-09-24T13:52:40.469Z,15.30
2018-09-24T13:55:29.256Z,15.20
2018-09-24T13:58:18.516Z,15.20
2018-09-24T14:01:06.846Z,15.10
2018-09-24T14:03:56.367Z,15.10
2018-09-24T14:06:45.527Z,15.10
2018-09-24T14:09:33.688Z,15.10
2018-09-24T14:12:24.114Z,15.10
2018-09-24T14:15:12.239Z,15.10
2018-09-24T14:18:01.214Z,15.20
2018-09-24T14:20:49.605Z,15.20
2018-09-24T14:23:38.809Z,15.30
2018-09-24T14:26:28.042Z,15.20
2018-09-24T14:29:17.388Z,15.20
2018-09-24T14:32:07.682Z,15.20
2018-09-24T14:34:56.102Z,15.20
2018-09-24T14:37:45.450Z,15.20
2018-09-24T14:40:34.667Z,15.10
2018-09-24T14:43:23.425Z,15.00
2018-09-24T14:49:20.218Z,14.70
2018-09-24T14:52:27.551Z,14.50
2018-09-24T14:55:16.019Z,14.50
2018-09-24T14:58:04.309Z,14.50
2018-09-24T15:00:53.793Z,14.60
2018-09-24T15:03:44.221Z,14.60
2018-09-24T15:06:33.081Z,14.60
2018-09-24T15:09:21.366Z,14.60
2018-09-24T15:12:11.930Z,14.70
2018-09-24T15:15:00.065Z,14.70
2018-09-24T15:17:48.382Z,15.30
2018-09-24T15:20:36.911Z,15.60
2018-09-24T15:23:33.353Z,15.50
2018-09-24T15:26:24.760Z,15.40
2018-09-24T15:29:13.996Z,15.20
2018-09-24T15:32:03.149Z,15.00
2018-09-24T15:34:51.590Z,15.00
2018-09-24T15:37:39.925Z,15.00
2018-09-24T15:40:28.250Z,15.50
2018-09-24T15:43:16.778Z,15.30
2018-09-24T15:46:05.063Z,15.20
2018-09-24T15:48:53.578Z,15.10
2018-09-24T15:51:42.499Z,15.10
2018-09-24T15:54:31.123Z,15.00
2018-09-24T15:57:39.745Z,15.00
2018-09-24T16:00:28.128Z,14.90
2018-09-24T16:03:16.327Z,14.90
2018-09-24T16:06:12.922Z,14.80
2018-09-24T16:09:02.246Z,14.70
2018-09-24T16:11:50.395Z,14.70
2018-09-24T16:14:38.568Z,14.70
2018-09-24T16:17:26.973Z,14.70
2018-09-24T16:20:16.454Z,14.60
2018-09-24T16:23:11.127Z,14.60
2018-09-24T16:25:59.315Z,14.60
2018-09-24T16:28:53.504Z,14.70
2018-09-24T16:31:44.480Z,14.50
2018-09-24T16:34:39.368Z,14.40
2018-09-24T16:37:27.851Z,14.40
2018-09-24T16:40:16.868Z,14.30
2018-09-24T16:43:14.175Z,14.30
2018-09-24T16:46:02.593Z,14.30
2018-09-24T16:48:50.928Z,14.30
2018-09-24T16:51:41.665Z,14.30
2018-09-24T16:54:29.909Z,14.30
2018-09-24T16:57:39.576Z,14.20
2018-09-24T17:00:28.135Z,14.20
2018-09-24T17:03:16.856Z,14.10
2018-09-24T17:06:05.144Z,14.10
2018-09-24T17:08:53.709Z,14.10
2018-09-24T17:11:42.292Z,14.00
2018-09-24T17:14:30.525Z,14.00
2018-09-24T17:17:19.242Z,14.00
2018-09-24T17:20:07.539Z,13.90
2018-09-24T17:22:55.854Z,13.80
2018-09-24T17:25:47.566Z,13.80
2018-09-24T17:28:44.794Z,13.80
2018-09-24T17:31:52.513Z,13.80
2018-09-24T17:34:41.052Z,13.80
2018-09-24T17:37:30.716Z,13.80
2018-09-24T17:40:23.393Z,13.70
2018-09-24T17:43:11.805Z,13.70
2018-09-24T17:46:00.104Z,13.60
2018-09-24T17:48:49.008Z,13.50
2018-09-24T17:51:37.360Z,13.50
2018-09-24T17:54:25.846Z,13.60
2018-09-24T17:57:14.057Z,13.50
2018-09-24T18:00:02.527Z,13.40
2018-09-24T18:02:51.360Z,13.40
2018-09-24T18:05:39.824Z,13.40
2018-09-24T18:08:32.182Z,13.40
2018-09-24T18:11:42.028Z,13.30
2018-09-24T18:14:50.874Z,13.20
2018-09-24T18:17:39.570Z,13.20
2018-09-24T18:20:28.777Z,13.10
2018-09-24T18:23:38.664Z,13.10
2018-09-24T18:26:27.056Z,13.00
2018-09-24T18:29:18.152Z,13.10
2018-09-24T18:32:06.763Z,13.10
2018-09-24T18:34:55.457Z,13.10
2018-09-24T18:37:44.636Z,13.00
2018-09-24T18:40:33.118Z,13.00
2018-09-24T18:43:41.963Z,12.90
2018-09-24T18:46:32.776Z,12.80
2018-09-24T18:49:21.083Z,12.80
2018-09-24T18:52:09.721Z,12.80
2018-09-24T18:55:00.558Z,12.80
2018-09-24T18:57:48.952Z,12.80
2018-09-24T19:00:39.130Z,12.80
2018-09-24T19:03:26.538Z,12.80
2018-09-24T19:06:14.990Z,12.70
2018-09-24T19:09:03.347Z,12.60
2018-09-24T19:11:51.606Z,12.60
2018-09-24T19:15:00.588Z,12.60
2018-09-24T19:17:51.746Z,12.70
2018-09-24T19:20:40.282Z,13.00
2018-09-24T19:23:34.307Z,12.70
2018-09-24T19:26:23.193Z,12.60
2018-09-24T19:29:11.737Z,12.60
2018-09-24T19:35:08.040Z,12.30
2018-09-24T19:37:58.299Z,12.40
2018-09-24T19:40:49.061Z,12.40
2018-09-24T19:43:37.276Z,12.30
2018-09-24T19:46:25.713Z,12.40
2018-09-24T19:49:15.943Z,12.50
2018-09-24T19:52:04.105Z,12.50
2018-09-24T19:54:53.397Z,12.30
2018-09-24T19:57:42.558Z,12.30
2018-09-24T20:00:30.833Z,12.30
2018-09-24T20:03:19.233Z,12.30
2018-09-24T20:06:08.384Z,12.30
2018-09-24T20:08:58.771Z,12.30
2018-09-24T20:11:47.329Z,12.40
2018-09-24T20:14:38.404Z,12.40
2018-09-24T20:17:46.730Z,12.20
2018-09-24T20:20:34.882Z,12.20
2018-09-24T20:23:23.521Z,12.10
2018-09-24T20:26:15.623Z,12.10
2018-09-24T20:29:04.139Z,12.10
2018-09-24T20:31:52.885Z,12.00
2018-09-24T20:34:41.060Z,12.00
2018-09-24T20:37:30.373Z,12.10
2018-09-24T20:40:18.813Z,12.10
2018-09-24T20:43:07.246Z,12.10
2018-09-24T20:45:55.601Z,12.00
2018-09-24T20:48:44.108Z,11.90
2018-09-24T20:51:32.525Z,12.00
2018-09-24T20:54:20.803Z,12.00
2018-09-24T20:57:09.271Z,11.90
2018-09-24T20:59:58.340Z,11.60
2018-09-24T21:02:47.443Z,11.70
2018-09-24T21:05:36.883Z,11.70
2018-09-24T21:08:25.274Z,11.70
2018-09-24T21:11:35.265Z,11.70
2018-09-24T21:14:23.409Z,11.60
2018-09-24T21:17:11.826Z,11.70
2018-09-24T21:20:00.132Z,11.60
2018-09-24T21:22:48.658Z,11.70
2018-09-24T21:25:36.890Z,11.70
2018-09-24T21:28:25.445Z,11.60
2018-09-24T21:31:13.897Z,11.60
2018-09-24T21:34:02.344Z,11.70
2018-09-24T21:36:50.901Z,11.70
2018-09-24T21:39:39.525Z,11.60
2018-09-24T21:42:33.245Z,11.60
2018-09-24T21:45:23.130Z,11.50
2018-09-24T21:48:12.129Z,11.60
2018-09-24T21:51:00.259Z,11.60
2018-09-24T21:53:49.006Z,11.60
2018-09-24T21:56:37.709Z,11.70
2018-09-24T21:59:25.963Z,11.60
2018-09-24T22:02:14.123Z,11.50
2018-09-24T22:05:03.143Z,11.50
2018-09-24T22:07:55.698Z,11.50
2018-09-24T22:10:44.044Z,11.60
2018-09-24T22:13:41.818Z,11.50
2018-09-24T22:16:30.250Z,11.30
2018-09-24T22:19:24.923Z,11.40
2018-09-24T22:22:13.377Z,11.50
2018-09-24T22:25:01.872Z,11.30
2018-09-24T22:27:50.318Z,11.30
2018-09-24T22:30:38.831Z,11.20
2018-09-24T22:33:26.932Z,11.30
2018-09-24T22:36:15.439Z,11.40
2018-09-24T22:39:03.851Z,11.30
2018-09-24T22:41:52.341Z,11.30
2018-09-24T22:44:40.812Z,11.20
2018-09-24T22:47:29.215Z,11.30
2018-09-24T22:50:17.586Z,11.20
2018-09-24T22:53:12.901Z,11.10
2018-09-24T22:56:01.507Z,11.10
2018-09-24T22:58:50.209Z,11.00
2018-09-24T23:01:38.500Z,11.00
2018-09-24T23:04:26.923Z,10.80
2018-09-24T23:07:15.367Z,10.90
2018-09-24T23:10:24.980Z,10.90
2018-09-24T23:13:13.111Z,10.80
2018-09-24T23:16:02.462Z,10.70
2018-09-24T23:18:51.008Z,10.70
2018-09-24T23:21:39.539Z,10.80
2018-09-24T23:24:27.915Z,10.70
2018-09-24T23:27:16.211Z,10.80
2018-09-24T23:30:08.428Z,10.50
2018-09-24T23:32:57.066Z,10.60
2018-09-24T23:35:46.147Z,10.40
2018-09-24T23:38:34.896Z,10.40
2018-09-24T23:41:23.523Z,10.50
2018-09-24T23:44:12.006Z,10.60
2018-09-24T23:47:00.426Z,10.50
2018-09-24T23:49:49.161Z,10.70
2018-09-24T23:52:37.664Z,10.60
2018-09-24T23:55:26.084Z,10.70
2018-09-24T23:58:14.588Z,10.50
